Dades meteomassalio
Diari Summary for Abril 3, 2017 Units:  Metric    English   Both
« Previous Day
Next Day »
Diari Semanal Mensual Anual Personalitzat
  Maxima: Minima: Mijana:
Temperatura: 19.9 °C 6.1 °C 12.2 °C
Rosada: 6.6 °C 2.7 °C 4.2 °C
Humitat: 79 % 35 % 60 %
Velocitat del vent: 31.5 km/h 0.0 km/h 9.6 km/h
Racha vent: 31.5 km/h - -
Vent:- - WSW
Pressio: 1025.6 hPa 1021.6 hPa -
Pluja: 0.0 mm    
Historical Graphs
 
 
Tabular Data for Abril 3, 2017
Time Temperature Dew Point Pressure Wind Wind Speed Wind Gust Humidity Rainfall Rate (Hourly) solar Conditions
00:00 10.2 °C 3.7 °C 1022.9 hPa West 20.4 km/h 20.4 km/h 64 % 0.0 mm 0.0 W/m2 CLR
00:05 10.1 °C 3.8 °C 1023.2 hPa WNW 20.4 km/h 20.4 km/h 65 % 0.0 mm 0.0 W/m2 CLR
00:10 10.1 °C 3.8 °C 1023.2 hPa WSW 22.2 km/h 22.2 km/h 65 % 0.0 mm 0.0 W/m2 CLR
00:15 10.0 °C 3.7 °C 1023.2 hPa WSW 19.3 km/h 19.3 km/h 65 % 0.0 mm 0.0 W/m2 CLR
00:20 10.0 °C 3.7 °C 1023.2 hPa West 24.1 km/h 24.1 km/h 65 % 0.0 mm 0.0 W/m2 CLR
00:25 9.9 °C 3.7 °C 1023.2 hPa West 25.9 km/h 25.9 km/h 65 % 0.0 mm 0.0 W/m2 CLR
00:30 9.9 °C 3.8 °C 1023.6 hPa West 16.7 km/h 16.7 km/h 66 % 0.0 mm 0.0 W/m2 CLR
00:35 9.8 °C 3.8 °C 1023.6 hPa WNW 16.7 km/h 16.7 km/h 66 % 0.0 mm 0.0 W/m2 CLR
00:40 9.7 °C 3.7 °C 1023.6 hPa WNW 22.2 km/h 22.2 km/h 66 % 0.0 mm 0.0 W/m2 CLR
00:45 9.7 °C 3.7 °C 1023.6 hPa West 22.2 km/h 22.2 km/h 66 % 0.0 mm 0.0 W/m2 CLR
00:50 9.7 °C 3.6 °C 1023.6 hPa West 24.1 km/h 24.1 km/h 66 % 0.0 mm 0.0 W/m2 CLR
00:55 9.6 °C 3.6 °C 1023.6 hPa West 22.2 km/h 22.2 km/h 66 % 0.0 mm 0.0 W/m2 CLR
01:00 9.6 °C 3.5 °C 1023.6 hPa West 22.2 km/h 22.2 km/h 66 % 0.0 mm 0.0 W/m2 CLR
01:05 9.4 °C 3.6 °C 1023.6 hPa NW 20.4 km/h 20.4 km/h 67 % 0.0 mm 0.0 W/m2 CLR
01:10 9.4 °C 3.6 °C 1023.6 hPa West 24.1 km/h 24.1 km/h 67 % 0.0 mm 0.0 W/m2 CLR
01:15 9.4 °C 3.6 °C 1023.6 hPa West 22.2 km/h 22.2 km/h 67 % 0.0 mm 0.0 W/m2 CLR
01:20 9.3 °C 3.5 °C 1023.6 hPa West 24.1 km/h 24.1 km/h 67 % 0.0 mm 0.0 W/m2 CLR
01:25 9.3 °C 3.5 °C 1023.9 hPa WSW 20.9 km/h 20.9 km/h 67 % 0.0 mm 0.0 W/m2 CLR
01:30 9.3 °C 3.4 °C 1023.9 hPa WNW 18.5 km/h 18.5 km/h 67 % 0.0 mm 0.0 W/m2 CLR
01:35 9.1 °C 3.5 °C 1023.9 hPa WNW 20.4 km/h 20.4 km/h 68 % 0.0 mm 0.0 W/m2 CLR
01:40 9.1 °C 3.5 °C 1023.9 hPa WNW 31.5 km/h 31.5 km/h 68 % 0.0 mm 0.0 W/m2 CLR
01:45 9.1 °C 3.5 °C 1023.9 hPa WNW 29.6 km/h 29.6 km/h 68 % 0.0 mm 0.0 W/m2 CLR
01:50 9.1 °C 3.4 °C 1023.9 hPa West 25.9 km/h 25.9 km/h 68 % 0.0 mm 0.0 W/m2 CLR
01:55 9.0 °C 3.4 °C 1023.6 hPa West 18.5 km/h 18.5 km/h 68 % 0.0 mm 0.0 W/m2 CLR
02:00 8.9 °C 3.3 °C 1023.6 hPa WNW 22.2 km/h 22.2 km/h 68 % 0.0 mm 0.0 W/m2 CLR
02:05 8.9 °C 3.3 °C 1023.9 hPa West 18.5 km/h 18.5 km/h 68 % 0.0 mm 0.0 W/m2 CLR
02:10 8.9 °C 3.3 °C 1023.6 hPa West 24.1 km/h 24.1 km/h 68 % 0.0 mm 0.0 W/m2 CLR
02:15 8.8 °C 3.4 °C 1023.6 hPa West 22.2 km/h 22.2 km/h 69 % 0.0 mm 0.0 W/m2 CLR
02:20 8.8 °C 3.4 °C 1023.6 hPa West 18.5 km/h 18.5 km/h 69 % 0.0 mm 0.0 W/m2 CLR
02:25 8.7 °C 3.3 °C 1023.6 hPa West 18.5 km/h 18.5 km/h 69 % 0.0 mm 0.0 W/m2 CLR
02:30 8.6 °C 3.4 °C 1023.6 hPa West 19.3 km/h 19.3 km/h 70 % 0.0 mm 0.0 W/m2 CLR
02:35 8.6 °C 3.4 °C 1023.6 hPa WSW 22.2 km/h 22.2 km/h 70 % 0.0 mm 0.0 W/m2 CLR
02:40 8.5 °C 3.3 °C 1023.6 hPa West 20.9 km/h 20.9 km/h 70 % 0.0 mm 0.0 W/m2 CLR
02:45 8.5 °C 3.3 °C 1023.9 hPa West 20.4 km/h 20.4 km/h 70 % 0.0 mm 0.0 W/m2 CLR
02:50 8.4 °C 3.2 °C 1023.9 hPa West 18.5 km/h 18.5 km/h 70 % 0.0 mm 0.0 W/m2 CLR
02:55 8.3 °C 3.4 °C 1023.9 hPa WSW 18.5 km/h 18.5 km/h 71 % 0.0 mm 0.0 W/m2 CLR
03:00 8.3 °C 3.4 °C 1023.9 hPa WSW 20.4 km/h 20.4 km/h 71 % 0.0 mm 0.0 W/m2 CLR
03:05 8.2 °C 3.3 °C 1023.9 hPa WSW 14.8 km/h 14.8 km/h 71 % 0.0 mm 0.0 W/m2 CLR
03:10 8.1 °C 3.4 °C 1023.9 hPa WSW 13.0 km/h 13.0 km/h 72 % 0.0 mm 0.0 W/m2 CLR
03:15 8.0 °C 3.3 °C 1023.9 hPa West 20.4 km/h 20.4 km/h 72 % 0.0 mm 0.0 W/m2 CLR
03:20 8.1 °C 3.3 °C 1023.9 hPa West 20.4 km/h 20.4 km/h 72 % 0.0 mm 0.0 W/m2 CLR
03:25 8.1 °C 3.4 °C 1023.9 hPa WSW 18.5 km/h 18.5 km/h 72 % 0.0 mm 0.0 W/m2 CLR
03:30 8.1 °C 3.4 °C 1023.9 hPa West 20.4 km/h 20.4 km/h 72 % 0.0 mm 0.0 W/m2 CLR
03:35 8.2 °C 3.4 °C 1023.6 hPa West 24.1 km/h 24.1 km/h 72 % 0.0 mm 0.0 W/m2 CLR
03:40 8.2 °C 3.4 °C 1023.6 hPa West 20.4 km/h 20.4 km/h 72 % 0.0 mm 0.0 W/m2 CLR
03:45 8.2 °C 3.4 °C 1023.6 hPa West 25.9 km/h 25.9 km/h 72 % 0.0 mm 0.0 W/m2 CLR
03:50 8.1 °C 3.4 °C 1023.6 hPa West 25.9 km/h 25.9 km/h 72 % 0.0 mm 0.0 W/m2 CLR
03:55 8.1 °C 3.5 °C 1023.6 hPa West 20.4 km/h 20.4 km/h 73 % 0.0 mm 0.0 W/m2 CLR
04:00 8.0 °C 3.4 °C 1023.6 hPa West 20.4 km/h 20.4 km/h 73 % 0.0 mm 0.0 W/m2 CLR
04:05 8.0 °C 3.4 °C 1023.6 hPa West 22.2 km/h 22.2 km/h 73 % 0.0 mm 0.0 W/m2 CLR
04:10 8.0 °C 3.4 °C 1023.6 hPa SW 20.4 km/h 20.4 km/h 73 % 0.0 mm 0.0 W/m2 CLR
04:15 7.9 °C 3.4 °C 1023.6 hPa West 18.5 km/h 18.5 km/h 73 % 0.0 mm 0.0 W/m2 CLR
04:20 7.9 °C 3.3 °C 1023.6 hPa West 18.5 km/h 18.5 km/h 73 % 0.0 mm 0.0 W/m2 CLR
04:25 7.9 °C 3.3 °C 1023.6 hPa WSW 22.2 km/h 22.2 km/h 73 % 0.0 mm 0.0 W/m2 CLR
04:30 7.8 °C 3.3 °C 1023.6 hPa West 20.9 km/h 20.9 km/h 73 % 0.0 mm 0.0 W/m2 CLR
04:35 7.9 °C 3.3 °C 1023.6 hPa WSW 20.4 km/h 20.4 km/h 73 % 0.0 mm 0.0 W/m2 CLR
04:40 8.0 °C 3.4 °C 1023.9 hPa WSW 18.5 km/h 18.5 km/h 73 % 0.0 mm 0.0 W/m2 CLR
04:46 8.0 °C 3.4 °C 1023.9 hPa West 18.5 km/h 18.5 km/h 73 % 0.0 mm 0.0 W/m2 CLR
04:51 7.9 °C 3.2 °C 1023.9 hPa West 16.7 km/h 16.7 km/h 72 % 0.0 mm 0.0 W/m2 CLR
04:56 7.8 °C 3.3 °C 1023.9 hPa WSW 9.7 km/h 10.0 km/h 73 % 0.0 mm 0.0 W/m2 CLR
05:01 7.7 °C 3.1 °C 1023.9 hPa WSW 9.7 km/h 9.7 km/h 73 % 0.0 mm 0.0 W/m2 CLR
05:06 7.6 °C 3.2 °C 1023.9 hPa WSW 13.0 km/h 13.0 km/h 74 % 0.0 mm 0.0 W/m2 CLR
05:11 7.6 °C 3.2 °C 1023.9 hPa West 3.7 km/h 3.7 km/h 74 % 0.0 mm 0.0 W/m2 CLR
05:16 7.4 °C 3.1 °C 1023.9 hPa WSW 9.7 km/h 9.7 km/h 74 % 0.0 mm 0.0 W/m2 CLR
05:21 7.4 °C 3.1 °C 1023.9 hPa WSW 5.6 km/h 5.6 km/h 74 % 0.0 mm 0.0 W/m2 CLR
05:26 7.3 °C 3.2 °C 1023.9 hPa WSW 14.8 km/h 14.8 km/h 75 % 0.0 mm 0.0 W/m2 CLR
05:31 7.3 °C 3.1 °C 1024.3 hPa Calm     75 % 0.0 mm 0.0 W/m2 CLR
05:36 7.2 °C 3.1 °C 1024.3 hPa SW 5.6 km/h 5.6 km/h 75 % 0.0 mm 0.0 W/m2 CLR
05:41 7.0 °C 3.1 °C 1024.3 hPa WSW 5.6 km/h 5.6 km/h 76 % 0.0 mm 0.0 W/m2 CLR
05:46 6.9 °C 3.0 °C 1024.3 hPa WSW 5.6 km/h 5.6 km/h 76 % 0.0 mm 0.0 W/m2 CLR
05:51 6.9 °C 2.9 °C 1024.3 hPa WSW 7.4 km/h 7.4 km/h 76 % 0.0 mm 0.0 W/m2 CLR
05:56 6.9 °C 2.9 °C 1024.3 hPa WSW 5.6 km/h 5.6 km/h 76 % 0.0 mm 0.0 W/m2 CLR
06:01 6.8 °C 2.8 °C 1024.3 hPa WSW 1.9 km/h 1.9 km/h 76 % 0.0 mm 0.0 W/m2 CLR
06:06 6.7 °C 2.9 °C 1024.3 hPa WSW 6.4 km/h 6.4 km/h 77 % 0.0 mm 0.0 W/m2 CLR
06:11 6.7 °C 2.9 °C 1024.3 hPa WSW 9.3 km/h 9.3 km/h 77 % 0.0 mm 0.0 W/m2 CLR
06:16 6.6 °C 2.9 °C 1024.3 hPa WSW 11.3 km/h 11.3 km/h 77 % 0.0 mm 0.0 W/m2 CLR
06:21 6.6 °C 2.9 °C 1024.3 hPa WSW 1.9 km/h 1.9 km/h 77 % 0.0 mm 0.0 W/m2 CLR
06:26 6.6 °C 2.8 °C 1024.3 hPa WSW 5.6 km/h 5.6 km/h 77 % 0.0 mm 0.0 W/m2 CLR
06:31 6.5 °C 2.8 °C 1024.3 hPa WSW 6.4 km/h 6.4 km/h 77 % 0.0 mm 0.0 W/m2 CLR
06:36 6.4 °C 2.9 °C 1024.6 hPa WSW 11.1 km/h 11.1 km/h 78 % 0.0 mm 0.0 W/m2 CLR
06:41 6.4 °C 2.8 °C 1024.6 hPa WSW 9.3 km/h 9.3 km/h 78 % 0.0 mm 0.0 W/m2 CLR
06:46 6.4 °C 2.9 °C 1024.6 hPa SW 9.3 km/h 9.3 km/h 78 % 0.0 mm 0.0 W/m2 CLR
06:51 6.3 °C 2.8 °C 1024.6 hPa Calm     78 % 0.0 mm 0.0 W/m2 CLR
06:56 6.3 °C 2.7 °C 1024.6 hPa Calm     78 % 0.0 mm 0.0 W/m2 CLR
07:01 6.3 °C 2.7 °C 1024.6 hPa WSW 9.3 km/h 9.3 km/h 78 % 0.0 mm 0.0 W/m2 CLR
07:06 6.3 °C 2.7 °C 1024.6 hPa WSW 5.6 km/h 5.6 km/h 78 % 0.0 mm 0.0 W/m2 CLR
07:11 6.2 °C 2.7 °C 1024.6 hPa WSW 5.6 km/h 5.6 km/h 78 % 0.0 mm 0.0 W/m2 CLR
07:16 6.2 °C 2.7 °C 1024.6 hPa WSW 5.6 km/h 5.6 km/h 78 % 0.0 mm 0.0 W/m2 CLR
07:21 6.2 °C 2.7 °C 1024.9 hPa WSW 7.4 km/h 7.4 km/h 78 % 0.0 mm 0.0 W/m2 CLR
07:26 6.3 °C 2.7 °C 1024.9 hPa WSW 11.3 km/h 11.3 km/h 78 % 0.0 mm 0.0 W/m2 CLR
07:31 6.3 °C 2.7 °C 1024.9 hPa WSW 14.8 km/h 14.8 km/h 78 % 0.0 mm 0.0 W/m2 OVC
07:32 6.3 °C 2.8 °C 1024.9 hPa WSW 12.9 km/h 12.9 km/h 78 % 0.0 mm 0.0 W/m2 OVC
07:37 6.3 °C 2.8 °C 1024.9 hPa WSW 13.0 km/h 13.0 km/h 78 % 0.0 mm 0.0 W/m2 OVC
07:42 6.3 °C 2.8 °C 1024.9 hPa WSW 13.0 km/h 13.0 km/h 78 % 0.0 mm 5.0 W/m2 OVC
07:47 6.3 °C 2.7 °C 1024.9 hPa WSW 12.9 km/h 12.9 km/h 78 % 0.0 mm 7.0 W/m2 BKN
07:52 6.2 °C 2.7 °C 1024.9 hPa SW 1.9 km/h   78 % 0.0 mm 11.0 W/m2 BKN
07:57 6.2 °C 2.8 °C 1024.9 hPa Calm     79 % 0.0 mm 12.0 W/m2 BKN
08:02 6.1 °C 2.7 °C 1025.3 hPa Calm     79 % 0.0 mm 14.0 W/m2 BKN
08:07 6.1 °C 2.7 °C 1024.9 hPa Calm   0.2 km/h 79 % 0.0 mm 18.0 W/m2 BKN
08:12 6.1 °C 2.7 °C 1024.9 hPa SW 5.6 km/h 5.6 km/h 79 % 0.0 mm 25.0 W/m2 BKN
08:17 6.3 °C 2.9 °C 1024.9 hPa SW 5.6 km/h 5.6 km/h 79 % 0.0 mm 32.0 W/m2 BKN
08:22 6.4 °C 2.9 °C 1025.3 hPa SW 3.7 km/h 3.7 km/h 78 % 0.0 mm 40.0 W/m2 BKN
08:27 6.6 °C 3.2 °C 1025.3 hPa Calm     79 % 0.0 mm 58.0 W/m2 SCT
08:32 6.7 °C 3.3 °C 1025.3 hPa Calm     79 % 0.0 mm 74.0 W/m2 SCT
08:37 6.8 °C 3.3 °C 1025.3 hPa Calm     78 % 0.0 mm 79.0 W/m2 FEW
08:42 6.9 °C 3.3 °C 1025.3 hPa Calm     78 % 0.0 mm 46.0 W/m2 FEW
08:47 7.1 °C 3.6 °C 1025.3 hPa Calm     78 % 0.0 mm 30.0 W/m2 SCT
08:52 7.4 °C 3.6 °C 1025.3 hPa Calm     77 % 0.0 mm 32.0 W/m2 BKN
08:57 7.7 °C 3.9 °C 1025.6 hPa SW 3.2 km/h 3.2 km/h 77 % 0.0 mm 165.0 W/m2 BKN
09:02 8.0 °C 4.0 °C 1025.6 hPa SSW 5.6 km/h 5.6 km/h 76 % 0.0 mm 183.0 W/m2 FEW
09:07 8.3 °C 4.2 °C 1025.3 hPa WSW 1.9 km/h 1.9 km/h 75 % 0.0 mm 200.0 W/m2 CLR
09:12 8.6 °C 4.1 °C 1025.3 hPa West 11.1 km/h 11.1 km/h 73 % 0.0 mm 220.0 W/m2 CLR
09:17 8.9 °C 4.1 °C 1025.3 hPa SW 5.6 km/h 5.6 km/h 72 % 0.0 mm 241.0 W/m2 CLR
09:22 9.1 °C 4.1 °C 1025.3 hPa West 9.3 km/h 9.3 km/h 71 % 0.0 mm 257.0 W/m2 CLR
09:27 9.3 °C 4.1 °C 1025.6 hPa WSW 7.4 km/h 7.4 km/h 70 % 0.0 mm 272.0 W/m2 CLR
09:32 9.5 °C 4.1 °C 1025.6 hPa WSW 18.5 km/h 18.5 km/h 69 % 0.0 mm 290.0 W/m2 CLR
09:37 9.6 °C 4.2 °C 1025.3 hPa WSW 9.3 km/h 9.3 km/h 69 % 0.0 mm 309.0 W/m2 CLR
09:42 9.8 °C 4.3 °C 1025.3 hPa West 7.4 km/h 7.4 km/h 69 % 0.0 mm 325.0 W/m2 CLR
09:47 9.8 °C 4.2 °C 1025.3 hPa WNW 22.2 km/h 22.2 km/h 68 % 0.0 mm 341.0 W/m2 CLR
09:52 9.9 °C 4.3 °C 1025.3 hPa WNW 22.5 km/h 22.5 km/h 68 % 0.0 mm 357.0 W/m2 CLR
09:57 10.0 °C 4.3 °C 1025.3 hPa West 13.0 km/h 13.0 km/h 68 % 0.0 mm 376.0 W/m2 CLR
10:02 10.1 °C 4.3 °C 1025.3 hPa NW 22.2 km/h 22.2 km/h 67 % 0.0 mm 392.0 W/m2 CLR
10:07 10.1 °C 4.4 °C 1025.3 hPa NW 20.4 km/h 20.4 km/h 68 % 0.0 mm 408.0 W/m2 CLR
10:12 10.2 °C 4.6 °C 1025.6 hPa West 18.5 km/h 18.5 km/h 68 % 0.0 mm 422.0 W/m2 CLR
10:17 10.4 °C 4.5 °C 1025.3 hPa West 16.7 km/h 16.7 km/h 67 % 0.0 mm 441.0 W/m2 CLR
10:22 10.4 °C 4.3 °C 1025.3 hPa West 18.5 km/h 18.5 km/h 66 % 0.0 mm 455.0 W/m2 CLR
10:27 10.6 °C 4.9 °C 1025.3 hPa NW 20.9 km/h 20.9 km/h 68 % 0.0 mm 471.0 W/m2 CLR
10:32 10.7 °C 4.8 °C 1025.3 hPa NW 20.4 km/h 20.4 km/h 67 % 0.0 mm 485.0 W/m2 CLR
10:37 10.7 °C 4.6 °C 1025.3 hPa WNW 18.5 km/h 18.5 km/h 66 % 0.0 mm 503.0 W/m2 CLR
10:42 10.7 °C 4.8 °C 1025.6 hPa NNW 20.4 km/h 20.4 km/h 67 % 0.0 mm 517.0 W/m2 CLR
10:47 11.1 °C 5.4 °C 1025.6 hPa WNW 18.5 km/h 18.5 km/h 68 % 0.0 mm 531.0 W/m2 CLR
10:52 11.3 °C 5.2 °C 1025.6 hPa West 18.5 km/h 18.5 km/h 66 % 0.0 mm 545.0 W/m2 CLR
10:57 11.2 °C 4.8 °C 1025.3 hPa West 22.2 km/h 22.2 km/h 65 % 0.0 mm 557.0 W/m2 CLR
11:02 11.2 °C 5.1 °C 1025.6 hPa WNW 18.5 km/h 18.5 km/h 66 % 0.0 mm 573.0 W/m2 CLR
11:07 11.4 °C 4.9 °C 1025.6 hPa NW 14.8 km/h 14.8 km/h 64 % 0.0 mm 585.0 W/m2 CLR
11:12 11.7 °C 5.1 °C 1025.3 hPa West 18.5 km/h 18.5 km/h 64 % 0.0 mm 599.0 W/m2 CLR
11:17 11.8 °C 4.9 °C 1025.3 hPa West 18.5 km/h 18.5 km/h 63 % 0.0 mm 612.0 W/m2 CLR
11:22 11.8 °C 4.9 °C 1025.3 hPa NW 18.5 km/h 18.5 km/h 63 % 0.0 mm 626.0 W/m2 CLR
11:27 11.9 °C 5.3 °C 1025.3 hPa WNW 20.4 km/h 20.4 km/h 64 % 0.0 mm 636.0 W/m2 CLR
11:32 12.0 °C 5.2 °C 1025.3 hPa NW 14.8 km/h 14.8 km/h 63 % 0.0 mm 649.0 W/m2 CLR
11:37 12.1 °C 4.8 °C 1025.3 hPa West 20.4 km/h 20.4 km/h 61 % 0.0 mm 661.0 W/m2 CLR
11:42 12.2 °C 5.4 °C 1025.3 hPa WNW 12.9 km/h 12.9 km/h 63 % 0.0 mm 671.0 W/m2 CLR
11:47 12.4 °C 5.6 °C 1025.3 hPa WNW 18.5 km/h 18.5 km/h 63 % 0.0 mm 682.0 W/m2 CLR
11:52 12.7 °C 5.4 °C 1025.3 hPa NNW 14.8 km/h 14.8 km/h 61 % 0.0 mm 693.0 W/m2 CLR
11:57 12.9 °C 5.3 °C 1025.3 hPa SW 14.8 km/h 14.8 km/h 60 % 0.0 mm 701.0 W/m2 CLR
12:02 12.9 °C 5.3 °C 1024.9 hPa WSW 5.6 km/h 5.6 km/h 60 % 0.0 mm 707.0 W/m2 CLR
12:08 13.3 °C 5.9 °C 1024.9 hPa WNW 16.1 km/h 16.1 km/h 61 % 0.0 mm 724.0 W/m2 CLR
12:13 13.3 °C 5.0 °C 1024.9 hPa WNW 18.5 km/h 18.5 km/h 57 % 0.0 mm 731.0 W/m2 CLR
12:18 13.3 °C 5.5 °C 1024.9 hPa NW 20.4 km/h 20.4 km/h 59 % 0.0 mm 740.0 W/m2 CLR
12:23 13.4 °C 5.6 °C 1024.9 hPa NW 22.5 km/h 22.5 km/h 59 % 0.0 mm 749.0 W/m2 CLR
12:28 13.6 °C 5.4 °C 1024.9 hPa WNW 18.5 km/h 18.5 km/h 58 % 0.0 mm 759.0 W/m2 CLR
12:33 13.6 °C 5.4 °C 1024.6 hPa NW 13.0 km/h 13.0 km/h 58 % 0.0 mm 766.0 W/m2 CLR
12:38 13.9 °C 5.2 °C 1024.6 hPa NW 13.0 km/h 13.0 km/h 56 % 0.0 mm 773.0 W/m2 CLR
12:43 14.1 °C 5.4 °C 1024.6 hPa NNW 17.7 km/h 17.7 km/h 56 % 0.0 mm 780.0 W/m2 CLR
12:48 14.2 °C 5.8 °C 1024.6 hPa NNW 18.5 km/h 18.5 km/h 57 % 0.0 mm 788.0 W/m2 CLR
12:53 14.4 °C 5.7 °C 1024.6 hPa NW 11.1 km/h 11.1 km/h 56 % 0.0 mm 793.0 W/m2 CLR
12:58 14.6 °C 5.7 °C 1024.6 hPa NNW 18.5 km/h 18.5 km/h 55 % 0.0 mm 800.0 W/m2 CLR
13:03 14.8 °C 5.8 °C 1024.3 hPa North 14.8 km/h 14.8 km/h 55 % 0.0 mm 805.0 W/m2 CLR
13:08 14.8 °C 6.1 °C 1024.3 hPa NW 1.9 km/h 1.9 km/h 56 % 0.0 mm 810.0 W/m2 CLR
13:13 14.8 °C 5.3 °C 1024.3 hPa NNW 13.0 km/h 13.0 km/h 53 % 0.0 mm 816.0 W/m2 CLR
13:18 15.2 °C 5.9 °C 1024.3 hPa WNW 3.7 km/h   54 % 0.0 mm 821.0 W/m2 CLR
13:23 15.3 °C 6.1 °C 1023.9 hPa WNW 11.1 km/h 11.1 km/h 54 % 0.0 mm 824.0 W/m2 CLR
13:28 15.5 °C 5.1 °C 1023.9 hPa NW 1.6 km/h   50 % 0.0 mm 826.0 W/m2 CLR
13:33 15.6 °C 5.5 °C 1023.9 hPa Calm     51 % 0.0 mm 830.0 W/m2 CLR
13:38 15.8 °C 5.7 °C 1023.9 hPa NW 14.8 km/h 14.8 km/h 51 % 0.0 mm 831.0 W/m2 CLR
13:43 15.9 °C 5.2 °C 1023.9 hPa Calm     49 % 0.0 mm 835.0 W/m2 CLR
13:48 16.2 °C 5.7 °C 1023.9 hPa Calm     50 % 0.0 mm 835.0 W/m2 CLR
13:53 16.5 °C 5.7 °C 1023.6 hPa NW 16.7 km/h 16.7 km/h 49 % 0.0 mm 840.0 W/m2 CLR
13:58 16.4 °C 5.1 °C 1023.6 hPa NW 5.6 km/h 5.6 km/h 47 % 0.0 mm 840.0 W/m2 CLR
14:03 16.3 °C 5.3 °C 1023.6 hPa Calm     48 % 0.0 mm 840.0 W/m2 CLR
14:08 16.5 °C 5.4 °C 1023.6 hPa WSW 5.6 km/h 5.6 km/h 48 % 0.0 mm 840.0 W/m2 CLR
14:13 16.8 °C 5.1 °C 1023.2 hPa WNW 3.7 km/h 3.7 km/h 46 % 0.0 mm 842.0 W/m2 CLR
14:18 16.9 °C 4.3 °C 1023.2 hPa NNE 13.0 km/h 13.0 km/h 43 % 0.0 mm 842.0 W/m2 CLR
14:23 17.1 °C 5.0 °C 1023.2 hPa Calm   0.2 km/h 45 % 0.0 mm 838.0 W/m2 CLR
14:28 17.3 °C 4.9 °C 1023.2 hPa North 1.9 km/h 1.9 km/h 44 % 0.0 mm 838.0 W/m2 CLR
14:33 17.4 °C 5.3 °C 1023.2 hPa Calm     45 % 0.0 mm 835.0 W/m2 CLR
14:38 17.5 °C 5.1 °C 1023.2 hPa NNW 3.7 km/h 3.7 km/h 44 % 0.0 mm 833.0 W/m2 CLR
14:43 17.6 °C 4.6 °C 1023.2 hPa NW 11.1 km/h 11.1 km/h 42 % 0.0 mm 831.0 W/m2 CLR
14:48 17.6 °C 4.9 °C 1023.2 hPa NW 3.2 km/h 3.2 km/h 43 % 0.0 mm 826.0 W/m2 CLR
14:53 17.5 °C 4.8 °C 1022.9 hPa NNE 3.7 km/h 3.7 km/h 43 % 0.0 mm 821.0 W/m2 CLR
14:58 17.4 °C 5.4 °C 1022.9 hPa NW 5.6 km/h 5.6 km/h 45 % 0.0 mm 817.0 W/m2 CLR
15:03 17.5 °C 5.1 °C 1022.9 hPa West 3.7 km/h 3.7 km/h 44 % 0.0 mm 812.0 W/m2 CLR
15:08 17.9 °C 5.5 °C 1022.9 hPa WNW 14.5 km/h 14.5 km/h 44 % 0.0 mm 809.0 W/m2 CLR
15:09 18.0 °C 5.6 °C 1022.9 hPa WNW 18.5 km/h 18.5 km/h 44 % 0.0 mm 809.0 W/m2 CLR
15:14 18.0 °C 4.9 °C 1022.9 hPa Calm     42 % 0.0 mm 802.0 W/m2 CLR
15:19 18.3 °C 6.1 °C 1022.9 hPa North 3.7 km/h 3.7 km/h 45 % 0.0 mm 793.0 W/m2 CLR
15:24 18.5 °C 5.7 °C 1022.6 hPa North 14.8 km/h 14.8 km/h 43 % 0.0 mm 793.0 W/m2 CLR
15:29 18.3 °C 5.8 °C 1022.6 hPa Calm     44 % 0.0 mm 780.0 W/m2 CLR
15:34 18.4 °C 5.9 °C 1022.6 hPa NNW 1.6 km/h   44 % 0.0 mm 773.0 W/m2 CLR
15:39 18.6 °C 5.8 °C 1022.6 hPa NNE 3.7 km/h 3.7 km/h 43 % 0.0 mm 768.0 W/m2 CLR
15:44 18.8 °C 6.6 °C 1022.6 hPa Calm     45 % 0.0 mm 763.0 W/m2 CLR
15:49 18.9 °C 5.7 °C 1022.6 hPa WNW 25.9 km/h 25.9 km/h 42 % 0.0 mm 756.0 W/m2 CLR
15:54 18.9 °C 6.4 °C 1022.6 hPa North 5.6 km/h 5.6 km/h 44 % 0.0 mm 744.0 W/m2 CLR
15:59 18.7 °C 5.2 °C 1022.2 hPa NNW 14.8 km/h 14.8 km/h 41 % 0.0 mm 733.0 W/m2 CLR
16:04 18.6 °C 5.7 °C 1022.2 hPa ENE 1.9 km/h 1.9 km/h 43 % 0.0 mm 726.0 W/m2 CLR
16:09 18.6 °C 5.8 °C 1022.2 hPa NW 16.7 km/h 16.7 km/h 43 % 0.0 mm 714.0 W/m2 CLR
16:14 18.7 °C 5.2 °C 1022.2 hPa NE 9.3 km/h 9.3 km/h 41 % 0.0 mm 707.0 W/m2 CLR
16:19 18.6 °C 5.4 °C 1022.2 hPa ENE 12.9 km/h 12.9 km/h 42 % 0.0 mm 698.0 W/m2 CLR
16:24 18.8 °C 5.6 °C 1022.2 hPa NW 11.1 km/h 11.1 km/h 42 % 0.0 mm 687.0 W/m2 CLR
16:29 19.1 °C 5.5 °C 1022.2 hPa North 14.8 km/h 14.8 km/h 41 % 0.0 mm 673.0 W/m2 SCT
16:34 18.9 °C 5.0 °C 1022.2 hPa NNE 1.9 km/h   40 % 0.0 mm 663.0 W/m2 BKN
16:39 19.1 °C 5.8 °C 1022.2 hPa NNW 3.2 km/h 3.2 km/h 42 % 0.0 mm 652.0 W/m2 OVC
16:44 19.4 °C 5.4 °C 1022.2 hPa NW 3.7 km/h 3.7 km/h 40 % 0.0 mm 642.0 W/m2 OVC
16:49 19.4 °C 5.1 °C 1021.9 hPa NW 5.6 km/h 5.6 km/h 39 % 0.0 mm 629.0 W/m2 OVC
16:54 19.4 °C 5.1 °C 1021.9 hPa Calm     39 % 0.0 mm 613.0 W/m2 OVC
16:59 19.5 °C 5.2 °C 1021.9 hPa NNW 5.6 km/h 5.6 km/h 39 % 0.0 mm 603.0 W/m2 OVC
17:04 19.5 °C 5.6 °C 1021.9 hPa NNW 9.7 km/h 9.7 km/h 40 % 0.0 mm 591.0 W/m2 OVC
17:09 19.6 °C 5.2 °C 1021.9 hPa Calm     39 % 0.0 mm 575.0 W/m2 OVC
17:14 19.7 °C 5.0 °C 1021.9 hPa NNE 17.7 km/h 17.7 km/h 38 % 0.0 mm 564.0 W/m2 OVC
17:19 19.6 °C 4.8 °C 1021.9 hPa NNE 14.8 km/h 14.8 km/h 38 % 0.0 mm 548.0 W/m2 OVC
17:24 19.6 °C 4.4 °C 1021.9 hPa NNE 1.9 km/h 1.9 km/h 37 % 0.0 mm 536.0 W/m2 OVC
17:29 19.6 °C 4.5 °C 1021.6 hPa NNW 8.0 km/h 8.0 km/h 37 % 0.0 mm 519.0 W/m2 OVC
17:34 19.7 °C 5.4 °C 1021.6 hPa North 12.9 km/h 12.9 km/h 39 % 0.0 mm 504.0 W/m2 OVC
17:39 19.7 °C 4.6 °C 1021.6 hPa NNE 3.2 km/h 3.2 km/h 37 % 0.0 mm 490.0 W/m2 OVC
17:44 19.7 °C 5.0 °C 1021.6 hPa North 1.9 km/h 1.9 km/h 38 % 0.0 mm 475.0 W/m2 OVC
17:49 19.7 °C 4.6 °C 1021.6 hPa NE 4.8 km/h 4.8 km/h 37 % 0.0 mm 457.0 W/m2 OVC
17:54 19.8 °C 4.7 °C 1021.6 hPa NNW 5.6 km/h 5.6 km/h 37 % 0.0 mm 443.0 W/m2 OVC
17:59 19.7 °C 4.2 °C 1021.6 hPa Calm     36 % 0.0 mm 427.0 W/m2 OVC
18:04 19.8 °C 5.1 °C 1021.6 hPa Calm   0.2 km/h 38 % 0.0 mm 413.0 W/m2 OVC
18:10 19.9 °C 5.2 °C 1021.6 hPa North 3.2 km/h 3.2 km/h 38 % 0.0 mm 397.0 W/m2 OVC
18:14 19.8 °C 4.3 °C 1021.6 hPa North 14.8 km/h 14.8 km/h 36 % 0.0 mm 380.0 W/m2 OVC
18:20 19.7 °C 4.2 °C 1021.6 hPa NNW 3.7 km/h 3.7 km/h 36 % 0.0 mm 362.0 W/m2 OVC
18:25 19.8 °C 4.3 °C 1021.6 hPa NNE 3.7 km/h 3.7 km/h 36 % 0.0 mm 350.0 W/m2 OVC
18:30 19.8 °C 4.3 °C 1021.6 hPa NNE 3.7 km/h 3.7 km/h 36 % 0.0 mm 329.0 W/m2 OVC
18:35 19.9 °C 4.4 °C 1021.6 hPa NNE 3.7 km/h 3.7 km/h 36 % 0.0 mm 313.0 W/m2 OVC
18:40 19.8 °C 4.3 °C 1021.6 hPa North 5.6 km/h 5.6 km/h 36 % 0.0 mm 295.0 W/m2 OVC
18:42 19.8 °C 4.3 °C 1021.6 hPa North 1.9 km/h   36 % 0.0 mm 290.0 W/m2 OVC
18:47 19.8 °C 4.3 °C 1021.6 hPa Calm     36 % 0.0 mm 272.0 W/m2 OVC
18:52 19.8 °C 3.9 °C 1021.6 hPa NE 3.2 km/h 3.2 km/h 35 % 0.0 mm 251.0 W/m2 OVC
18:57 19.7 °C 4.2 °C 1021.6 hPa NNE 3.7 km/h 3.7 km/h 36 % 0.0 mm 234.0 W/m2 OVC
19:02 19.6 °C 3.7 °C 1021.6 hPa North 5.6 km/h 5.6 km/h 35 % 0.0 mm 214.0 W/m2 OVC
19:07 19.5 °C 4.0 °C 1021.6 hPa Calm     36 % 0.0 mm 192.0 W/m2 OVC
19:12 19.4 °C 3.9 °C 1021.6 hPa NNW 3.7 km/h 3.7 km/h 36 % 0.0 mm 174.0 W/m2 OVC
19:17 19.4 °C 3.9 °C 1021.6 hPa Calm     36 % 0.0 mm 155.0 W/m2 OVC
19:22 19.4 °C 3.9 °C 1021.6 hPa North 5.6 km/h 5.6 km/h 36 % 0.0 mm 137.0 W/m2 OVC
19:27 19.3 °C 4.3 °C 1021.9 hPa Calm     37 % 0.0 mm 120.0 W/m2 OVC
19:32 19.3 °C 4.3 °C 1021.9 hPa Calm     37 % 0.0 mm 98.0 W/m2 OVC
19:37 19.3 °C 4.3 °C 1021.9 hPa Calm     37 % 0.0 mm 81.0 W/m2 OVC
19:42 19.3 °C 3.5 °C 1021.9 hPa Calm     35 % 0.0 mm 63.0 W/m2 OVC
19:47 19.1 °C 3.6 °C 1021.9 hPa Calm     36 % 0.0 mm 49.0 W/m2 OVC
19:52 18.9 °C 3.9 °C 1021.9 hPa Calm     37 % 0.0 mm 39.0 W/m2 OVC
19:57 18.8 °C 3.4 °C 1021.9 hPa Calm     36 % 0.0 mm 28.0 W/m2 OVC
20:02 18.5 °C 3.9 °C 1021.9 hPa Calm     38 % 0.0 mm 16.0 W/m2 OVC
20:04 18.4 °C 3.4 °C 1021.9 hPa Calm     37 % 0.0 mm 14.0 W/m2 OVC
20:09 17.9 °C 3.4 °C 1021.9 hPa Calm     38 % 0.0 mm 11.0 W/m2 OVC
20:14 17.5 °C 3.7 °C 1021.9 hPa Calm     40 % 0.0 mm 9.0 W/m2 OVC
20:19 17.2 °C 4.1 °C 1021.9 hPa Calm     42 % 0.0 mm 5.0 W/m2 OVC
20:25 16.7 °C 4.3 °C 1021.9 hPa Calm     44 % 0.0 mm 0.0 W/m2 OVC
20:30 16.1 °C 4.2 °C 1021.9 hPa Calm     45 % 0.0 mm 0.0 W/m2 OVC
20:35 15.6 °C 4.0 °C 1021.9 hPa Calm     46 % 0.0 mm 0.0 W/m2 OVC
20:40 15.2 °C 4.3 °C 1021.9 hPa Calm     48 % 0.0 mm 0.0 W/m2 CLR
20:45 14.9 °C 4.0 °C 1021.9 hPa Calm     48 % 0.0 mm 0.0 W/m2 CLR
20:50 14.7 °C 4.1 °C 1021.9 hPa Calm     49 % 0.0 mm 0.0 W/m2 CLR
20:55 14.7 °C 3.8 °C 1021.9 hPa Calm     48 % 0.0 mm 0.0 W/m2 CLR
21:00 14.7 °C 4.1 °C 1022.2 hPa Calm     49 % 0.0 mm 0.0 W/m2 CLR
21:05 14.6 °C 4.2 °C 1022.2 hPa Calm     50 % 0.0 mm 0.0 W/m2 CLR
21:10 14.3 °C 4.3 °C 1022.2 hPa Calm     51 % 0.0 mm 0.0 W/m2 CLR
21:15 13.8 °C 5.2 °C 1022.2 hPa Calm     56 % 0.0 mm 0.0 W/m2 CLR
21:20 13.2 °C 5.1 °C 1022.2 hPa Calm     58 % 0.0 mm 0.0 W/m2 CLR
21:25 12.7 °C 4.9 °C 1022.2 hPa Calm     59 % 0.0 mm 0.0 W/m2 CLR
21:30 12.4 °C 4.8 °C 1022.2 hPa Calm     60 % 0.0 mm 0.0 W/m2 CLR
21:35 12.1 °C 4.8 °C 1022.2 hPa Calm     61 % 0.0 mm 0.0 W/m2 CLR
21:40 11.9 °C 4.8 °C 1022.6 hPa Calm     62 % 0.0 mm 0.0 W/m2 CLR
21:45 11.6 °C 4.8 °C 1022.6 hPa Calm     63 % 0.0 mm 0.0 W/m2 CLR
21:50 11.3 °C 4.8 °C 1022.6 hPa Calm     64 % 0.0 mm 0.0 W/m2 CLR
21:55 11.1 °C 4.6 °C 1022.6 hPa Calm     64 % 0.0 mm 0.0 W/m2 CLR
22:00 10.9 °C 4.8 °C 1022.6 hPa Calm     66 % 0.0 mm 0.0 W/m2 CLR
22:05 10.7 °C 4.6 °C 1022.6 hPa Calm     66 % 0.0 mm 0.0 W/m2 CLR
22:10 10.4 °C 4.5 °C 1022.6 hPa Calm     67 % 0.0 mm 0.0 W/m2 CLR
22:15 10.1 °C 4.7 °C 1022.9 hPa Calm     69 % 0.0 mm 0.0 W/m2 CLR
22:20 9.9 °C 4.4 °C 1022.9 hPa Calm     69 % 0.0 mm 0.0 W/m2 CLR
22:25 9.7 °C 4.5 °C 1022.9 hPa Calm     70 % 0.0 mm 0.0 W/m2 CLR
22:30 9.6 °C 4.4 °C 1022.9 hPa Calm     70 % 0.0 mm 0.0 W/m2 CLR
22:35 9.5 °C 4.3 °C 1022.9 hPa Calm     70 % 0.0 mm 0.0 W/m2 CLR
22:40 9.4 °C 4.4 °C 1023.2 hPa Calm     71 % 0.0 mm 0.0 W/m2 CLR
22:45 9.3 °C 4.3 °C 1023.2 hPa Calm     71 % 0.0 mm 0.0 W/m2 CLR
22:50 9.3 °C 4.3 °C 1023.2 hPa Calm     71 % 0.0 mm 0.0 W/m2 CLR
22:55 9.2 °C 4.2 °C 1023.2 hPa Calm     71 % 0.0 mm 0.0 W/m2 CLR
23:00 9.0 °C 4.0 °C 1023.2 hPa Calm     71 % 0.0 mm 0.0 W/m2 CLR
23:05 8.8 °C 4.1 °C 1023.2 hPa Calm     72 % 0.0 mm 0.0 W/m2 CLR
23:10 8.7 °C 3.9 °C 1023.2 hPa Calm     72 % 0.0 mm 0.0 W/m2 CLR
23:15 8.6 °C 4.1 °C 1023.2 hPa Calm     73 % 0.0 mm 0.0 W/m2 CLR
23:20 8.4 °C 3.8 °C 1023.2 hPa Calm     73 % 0.0 mm 0.0 W/m2 CLR
23:25 8.4 °C 3.8 °C 1023.2 hPa Calm     73 % 0.0 mm 0.0 W/m2 CLR
23:30 8.3 °C 3.8 °C 1023.6 hPa Calm     73 % 0.0 mm 0.0 W/m2 CLR
23:35 8.2 °C 3.6 °C 1023.6 hPa Calm     73 % 0.0 mm 0.0 W/m2 CLR
23:40 8.1 °C 3.7 °C 1023.6 hPa Calm     74 % 0.0 mm 0.0 W/m2 CLR
23:45 8.0 °C 3.7 °C 1023.6 hPa Calm     74 % 0.0 mm 0.0 W/m2 CLR
23:50 7.9 °C 3.6 °C 1023.6 hPa Calm     74 % 0.0 mm 0.0 W/m2 CLR
23:55 7.8 °C 3.5 °C 1023.6 hPa Calm     74 % 0.0 mm 0.0 W/m2 CLR
23:56 7.8 °C 3.5 °C 1023.6 hPa Calm     74 % 0.0 mm 0.0 W/m2 CLR
Lo Temps de Massalio
Compliments of Weather Underground - 1.25 mb